Time;durP1;ratioP1;P1;durP2;ratioP2;P2;SDS_P1;SDS_P2;PMS_P1;PMS_P2;Temp;Humidity;BMP_temperature;BMP_pressure;BME280_temperature;BME280_humidity;BME280_pressure;Samples;Min_cycle;Max_cycle;Signal;HPM_P1;HPM_P2
2022/01/24 00:00:00;;;;;;;48.83;21.23;;;;;;;4.49;93.10;103460.56;5053807;28;20078;-72
2022/01/24 00:02:28;;;;;;;45.40;19.90;;;;;;;4.55;92.41;103466.72;5052589;28;20460;-72
2022/01/24 00:04:54;;;;;;;46.42;20.38;;;;;;;4.60;92.97;103484.41;5051628;28;20039;-73
2022/01/24 00:07:22;;;;;;;47.65;22.20;;;;;;;4.71;92.32;103483.41;5053443;28;20032;-72
2022/01/24 00:09:48;;;;;;;48.92;22.65;;;;;;;4.65;93.28;103477.25;5054462;28;20036;-73
2022/01/24 00:12:21;;;;;;;51.88;22.33;;;;;;;4.68;93.27;103480.78;5045988;28;20036;-72
2022/01/24 00:18:02;;;;;;;47.42;20.10;;;;;;;4.51;94.58;103471.19;5022072;28;20063;-72
2022/01/24 00:28:26;;;;;;;54.10;21.38;;;;;;;4.44;93.09;103454.41;5056646;28;20032;-72
2022/01/24 00:30:52;;;;;;;50.13;23.42;;;;;;;4.61;92.51;103464.88;5054028;28;20028;-73
2022/01/24 00:33:19;;;;;;;48.97;22.40;;;;;;;4.50;91.24;103462.34;5053259;28;21410;-72
2022/01/24 00:35:44;;;;;;;51.60;27.42;;;;;;;4.76;89.00;103449.66;5056080;28;20033;-73
2022/01/24 00:38:10;;;;;;;50.40;25.98;;;;;;;4.97;86.08;103453.81;5051955;28;20025;-72
2022/01/24 00:40:39;;;;;;;45.15;21.40;;;;;;;4.88;86.66;103452.16;5054726;28;20035;-73
2022/01/24 00:43:15;;;;;;;46.63;22.67;;;;;;;4.99;86.22;103457.34;5058504;28;20116;-72
2022/01/24 00:45:51;;;;;;;48.30;22.13;;;;;;;4.76;87.59;103453.19;5057310;28;20059;-73
2022/01/24 00:48:57;;;;;;;47.80;21.13;;;;;;;4.84;87.00;103462.88;5060477;28;20041;-72
2022/01/24 00:56:50;;;;;;;43.58;20.38;;;;;;;4.68;87.59;103456.84;5058929;28;20102;-72
2022/01/24 00:59:15;;;;;;;46.10;20.33;;;;;;;4.56;88.36;103449.88;5042223;28;20313;-72
2022/01/24 01:01:40;;;;;;;47.72;21.23;;;;;;;4.54;88.51;103451.66;5063799;28;20482;-72
2022/01/24 01:04:06;;;;;;;46.75;20.85;;;;;;;4.51;88.58;103452.56;5060029;28;20036;-72
2022/01/24 01:06:31;;;;;;;44.08;21.00;;;;;;;4.45;88.53;103445.53;5063439;28;20474;-72
2022/01/24 01:20:00;;;;;;;46.85;22.10;;;;;;;4.45;92.43;103448.19;5055458;28;20075;-72
2022/01/24 01:22:25;;;;;;;47.17;20.83;;;;;;;4.40;92.45;103439.38;5029938;28;20628;-72
2022/01/24 01:24:53;;;;;;;43.28;20.40;;;;;;;4.39;92.33;103439.41;5046324;28;20036;-72
2022/01/24 01:27:25;;;;;;;43.42;19.90;;;;;;;4.28;90.97;103424.41;5053032;28;20031;-72
2022/01/24 01:30:02;;;;;;;43.88;20.45;;;;;;;4.52;90.97;103445.47;5051070;28;20074;-72
2022/01/24 01:54:12;;;;;;;42.90;19.42;;;;;;;4.45;92.70;103450.84;5059578;28;20071;-72
2022/01/24 01:56:39;;;;;;;43.08;20.88;;;;;;;4.33;92.91;103433.22;5048430;28;20044;-72
2022/01/24 01:59:05;;;;;;;45.13;19.05;;;;;;;4.45;92.86;103447.31;5060519;28;20112;-72
2022/01/24 02:01:30;;;;;;;44.78;21.40;;;;;;;4.38;92.85;103433.19;5062815;28;20024;-72
2022/01/24 02:03:57;;;;;;;45.40;19.92;;;;;;;4.47;91.53;103442.88;5058574;28;20095;-72
2022/01/24 02:06:23;;;;;;;42.25;20.38;;;;;;;4.50;91.77;103434.84;5059762;28;20054;-72
2022/01/24 02:08:48;;;;;;;45.05;22.17;;;;;;;4.49;91.36;103436.63;5062091;28;20036;-72
2022/01/24 02:11:16;;;;;;;42.97;19.13;;;;;;;4.42;91.62;103442.03;5059017;28;20521;-72
2022/01/24 02:13:41;;;;;;;43.63;19.05;;;;;;;4.38;92.03;103427.84;5063564;28;20374;-72
2022/01/24 02:16:27;;;;;;;45.55;20.30;;;;;;;4.35;92.51;103434.09;5055794;28;20021;-72
2022/01/24 02:19:07;;;;;;;44.00;19.40;;;;;;;4.37;92.10;103439.38;5060630;28;21067;-72
2022/01/24 02:24:06;;;;;;;40.38;19.48;;;;;;;4.35;91.44;103425.25;5053150;28;20040;-72
2022/01/24 02:26:33;;;;;;;32.85;15.50;;;;;;;4.38;89.00;103432.31;5049814;28;20040;-72
2022/01/24 02:29:08;;;;;;;40.50;18.02;;;;;;;4.39;89.82;103426.09;5053602;28;20029;-72
2022/01/24 02:31:41;;;;;;;34.25;17.35;;;;;;;4.41;89.32;103424.31;5045182;28;20032;-72
2022/01/24 02:34:24;;;;;;;33.67;16.30;;;;;;;4.38;89.48;103422.53;5052850;28;20032;-73
2022/01/24 02:36:52;;;;;;;34.03;16.67;;;;;;;4.35;89.91;103409.28;5051814;28;20035;-74
2022/01/24 02:49:55;;;;;;;40.33;17.98;;;;;;;4.25;89.73;103413.78;5059732;28;20098;-72
2022/01/24 02:52:24;;;;;;;39.13;17.10;;;;;;;4.16;90.44;103404.13;5057490;28;20040;-72
2022/01/24 02:54:50;;;;;;;38.00;17.27;;;;;;;4.23;89.81;103415.63;5056326;28;20529;-72
2022/01/24 02:57:15;;;;;;;34.83;16.08;;;;;;;4.16;90.48;103400.59;5058198;28;20028;-72
2022/01/24 02:59:41;;;;;;;38.85;18.02;;;;;;;4.26;90.47;103417.34;5064585;28;20043;-72
2022/01/24 03:02:07;;;;;;;34.13;16.42;;;;;;;4.20;90.10;103403.22;5057352;28;20025;-72
2022/01/24 03:04:32;;;;;;;35.83;17.33;;;;;;;4.30;90.21;103414.63;5059286;28;20024;-72
2022/01/24 03:06:57;;;;;;;38.45;17.67;;;;;;;4.22;89.67;103403.22;5056748;28;20440;-72
2022/01/24 03:09:23;;;;;;;36.15;17.02;;;;;;;4.18;90.63;103401.47;5058274;28;20028;-72
2022/01/24 03:12:01;;;;;;;34.33;16.00;;;;;;;4.24;90.38;103403.19;5057448;28;20525;-72
2022/01/24 03:14:29;;;;;;;30.90;15.70;;;;;;;4.24;90.32;103406.72;5063722;28;20053;-72
2022/01/24 03:16:55;;;;;;;30.02;14.77;;;;;;;4.29;90.01;103406.69;5053471;28;20028;-72
2022/01/24 03:19:21;;;;;;;37.25;17.60;;;;;;;4.31;90.24;103396.91;5053514;28;20308;-72
2022/01/24 03:21:46;;;;;;;35.38;16.05;;;;;;;4.18;89.65;103382.88;5046426;28;20152;-72
2022/01/24 03:24:13;;;;;;;35.63;16.15;;;;;;;4.27;90.33;103397.84;5049962;28;20085;-72
2022/01/24 03:26:38;;;;;;;33.45;15.63;;;;;;;4.23;90.99;103391.69;5050573;28;20021;-72
2022/01/24 03:29:04;;;;;;;35.03;16.33;;;;;;;4.22;91.86;103394.34;5035036;28;20035;-72
2022/01/24 03:31:29;;;;;;;29.45;15.90;;;;;;;4.15;92.02;103398.84;5051372;28;20419;-72
2022/01/24 03:33:54;;;;;;;27.85;14.13;;;;;;;4.15;91.85;103396.19;5049391;28;20032;-72
2022/01/24 03:36:20;;;;;;;28.40;14.07;;;;;;;4.19;92.14;103404.09;5056569;28;20037;-72
2022/01/24 03:38:45;;;;;;;32.03;15.43;;;;;;;4.15;91.28;103381.09;5050938;28;20035;-72
2022/01/24 03:41:11;;;;;;;36.00;16.13;;;;;;;4.24;91.18;103392.56;5047814;28;20529;-72
2022/01/24 03:43:36;;;;;;;33.28;15.07;;;;;;;4.20;91.66;103389.91;5052636;28;20032;-72
2022/01/24 03:48:51;;;;;;;35.72;17.10;;;;;;;4.12;93.03;103391.75;5050282;28;20044;-72
2022/01/24 03:51:17;;;;;;;34.17;16.27;;;;;;;4.09;92.50;103388.25;5039260;28;20434;-72
2022/01/24 03:53:43;;;;;;;33.72;15.88;;;;;;;4.02;93.18;103390.09;5048721;28;20687;-72
2022/01/24 03:56:08;;;;;;;33.50;16.30;;;;;;;3.92;93.52;103389.31;5053045;28;20070;-72
2022/01/24 03:58:34;;;;;;;30.73;15.98;;;;;;;3.94;95.15;103389.28;5054039;28;20032;-73
2022/01/24 04:01:01;;;;;;;36.67;16.85;;;;;;;3.92;94.94;103388.41;5053300;28;20025;-72
2022/01/24 04:03:26;;;;;;;35.35;16.00;;;;;;;3.93;94.45;103392.84;5051963;28;20028;-72
2022/01/24 04:05:52;;;;;;;35.33;15.23;;;;;;;3.92;94.16;103389.31;5054597;28;20670;-72
2022/01/24 04:08:18;;;;;;;36.38;16.58;;;;;;;4.03;93.62;103379.44;5052490;28;20051;-72
2022/01/24 04:10:47;;;;;;;38.38;18.27;;;;;;;4.00;90.53;103383.91;5054608;28;20542;-72
2022/01/24 04:13:25;;;;;;;33.03;17.48;;;;;;;4.13;92.03;103387.34;5053916;28;20115;-72
2022/01/24 04:23:48;;;;;;;36.83;17.35;;;;;;;3.95;89.47;103376.00;5052164;28;20033;-73
2022/01/24 04:26:14;;;;;;;36.80;17.55;;;;;;;3.94;89.87;103371.56;5052649;28;20059;-72
2022/01/24 04:28:39;;;;;;;42.45;17.33;;;;;;;3.89;91.51;103366.28;5053425;28;20139;-72
2022/01/24 04:31:04;;;;;;;33.53;16.73;;;;;;;3.92;91.25;103385.75;5054437;28;20077;-72
2022/01/24 04:33:30;;;;;;;34.72;17.00;;;;;;;3.90;91.99;103376.00;5051709;28;20465;-72
2022/01/24 04:35:55;;;;;;;34.67;16.30;;;;;;;3.93;91.49;103390.19;5052098;28;20336;-72
2022/01/24 04:38:20;;;;;;;35.63;16.10;;;;;;;3.97;93.23;103389.25;5049867;28;20029;-72
2022/01/24 04:40:46;;;;;;;35.78;17.42;;;;;;;3.99;94.20;103395.44;5052950;28;20016;-72
2022/01/24 04:56:35;;;;;;;35.85;16.63;;;;;;;3.98;94.84;103394.53;5060710;28;20028;-72
2022/01/24 04:59:01;;;;;;;34.20;16.92;;;;;;;4.03;94.13;103399.84;5060970;28;20027;-72
2022/01/24 05:01:26;;;;;;;35.40;16.77;;;;;;;3.95;95.19;103402.56;5058536;28;20521;-72
2022/01/24 05:03:52;;;;;;;33.38;16.55;;;;;;;3.97;94.30;103397.22;5061119;28;20066;-72
2022/01/24 05:06:18;;;;;;;33.00;15.68;;;;;;;3.98;94.76;103399.88;5059912;28;20035;-72
2022/01/24 05:08:43;;;;;;;33.03;16.13;;;;;;;3.97;94.11;103398.13;5064460;28;20039;-72
2022/01/24 05:11:13;;;;;;;35.65;16.52;;;;;;;3.95;94.35;103394.59;5063442;28;20028;-72
2022/01/24 05:24:33;;;;;;;33.33;15.20;;;;;;;3.97;93.18;103391.91;5052795;28;20047;-72
2022/01/24 05:26:58;;;;;;;29.35;14.15;;;;;;;3.79;93.56;103382.31;5051099;28;20493;-72
2022/01/24 05:29:24;;;;;;;32.38;16.10;;;;;;;3.74;93.95;103375.25;5056070;28;20048;-72
2022/01/24 05:31:49;;;;;;;29.58;14.60;;;;;;;3.84;93.78;103385.81;5055055;28;20036;-72
2022/01/24 05:34:14;;;;;;;29.48;13.90;;;;;;;3.86;93.99;103382.25;5052210;28;20546;-72
2022/01/24 05:36:40;;;;;;;30.25;14.85;;;;;;;3.87;93.53;103383.16;5059680;28;20460;-72
2022/01/24 05:39:05;;;;;;;31.27;13.68;;;;;;;3.86;93.30;103381.38;5041649;28;20064;-72
2022/01/24 05:41:31;;;;;;;28.40;12.95;;;;;;;3.87;93.95;103388.47;5057776;28;20032;-72
2022/01/24 05:43:56;;;;;;;27.90;13.45;;;;;;;3.86;94.91;103395.53;5056080;28;20150;-72
2022/01/24 05:46:22;;;;;;;26.98;13.02;;;;;;;3.92;95.44;103396.38;5050996;28;20037;-73
2022/01/24 05:48:47;;;;;;;32.33;14.30;;;;;;;3.91;94.95;103395.53;5052143;28;20064;-72
2022/01/24 05:51:12;;;;;;;27.40;13.80;;;;;;;3.81;95.23;103381.44;5053678;28;20052;-74
2022/01/24 05:53:38;;;;;;;24.30;13.60;;;;;;;3.83;95.65;103395.59;5055390;28;20048;-71
2022/01/24 05:56:03;;;;;;;30.65;14.73;;;;;;;3.74;95.31;103375.25;5057722;28;20082;-72
2022/01/24 05:58:28;;;;;;;32.08;14.63;;;;;;;3.79;95.61;103390.28;5057164;28;20385;-71
2022/01/24 06:00:54;;;;;;;29.75;14.75;;;;;;;3.72;97.23;103387.69;5039011;28;20024;-74
2022/01/24 06:03:20;;;;;;;34.97;15.88;;;;;;;3.69;96.66;103386.84;5057861;28;20032;-73
2022/01/24 06:05:45;;;;;;;32.55;14.98;;;;;;;3.66;96.67;103381.53;5052930;28;20032;-74
2022/01/24 06:08:11;;;;;;;31.25;14.82;;;;;;;3.53;97.44;103368.38;5049901;28;20465;-74
2022/01/24 06:10:37;;;;;;;29.27;14.20;;;;;;;3.62;96.77;103390.41;5058441;28;20395;-74
2022/01/24 06:13:03;;;;;;;27.77;13.52;;;;;;;3.61;96.38;103384.25;5057898;28;20027;-74
2022/01/24 06:15:28;;;;;;;32.28;15.07;;;;;;;3.56;95.99;103383.38;5057818;28;20032;-74
2022/01/24 06:17:53;;;;;;;24.30;12.70;;;;;;;3.57;95.41;103391.38;5042143;28;20036;-74
2022/01/24 06:20:19;;;;;;;31.15;13.38;;;;;;;3.53;95.71;103392.28;5056376;28;20037;-74
2022/01/24 06:22:44;;;;;;;28.17;14.27;;;;;;;3.50;95.15;103396.72;5059061;28;20115;-74
2022/01/24 06:25:10;;;;;;;32.88;13.43;;;;;;;3.48;95.52;103395.84;5052173;28;20348;-74
2022/01/24 06:27:35;;;;;;;27.95;13.32;;;;;;;3.42;95.55;103376.41;5058384;28;20028;-74
2022/01/24 06:30:01;;;;;;;27.20;14.27;;;;;;;3.45;95.50;103381.69;5052497;28;20040;-74
2022/01/24 06:32:26;;;;;;;26.92;13.90;;;;;;;3.46;95.26;103390.53;5058974;28;20030;-74
2022/01/24 06:34:51;;;;;;;29.15;14.50;;;;;;;3.44;95.46;103387.00;5050977;28;20038;-74
2022/01/24 06:37:17;;;;;;;28.80;13.43;;;;;;;3.42;95.77;103388.78;5060843;28;20394;-74
2022/01/24 06:39:42;;;;;;;29.83;14.95;;;;;;;3.43;95.31;103379.94;5050860;28;20465;-74
2022/01/24 06:44:36;;;;;;;26.70;13.27;;;;;;;3.36;96.45;103400.34;5055078;28;20020;-74
2022/01/24 06:47:02;;;;;;;25.13;13.30;;;;;;;3.28;96.25;103395.09;5059353;28;20139;-75
2022/01/24 06:49:27;;;;;;;31.48;13.40;;;;;;;3.39;95.84;103399.44;5058926;28;20372;-75
2022/01/24 06:51:52;;;;;;;25.40;12.77;;;;;;;3.30;96.09;103395.97;5060263;28;20032;-71
2022/01/24 06:54:18;;;;;;;27.38;13.63;;;;;;;3.26;96.12;103395.97;5037527;28;20048;-74
2022/01/24 06:56:43;;;;;;;28.88;14.60;;;;;;;3.36;95.89;103402.09;5045028;28;20147;-76
2022/01/24 06:59:08;;;;;;;23.58;13.50;;;;;;;3.25;96.36;103392.44;5055532;28;20020;-71
2022/01/24 07:01:34;;;;;;;23.98;13.05;;;;;;;3.32;96.20;103405.66;5054233;28;20036;-74
2022/01/24 07:03:59;;;;;;;24.83;13.13;;;;;;;3.25;95.63;103391.56;5056400;28;20039;-75
2022/01/24 07:06:25;;;;;;;26.98;14.00;;;;;;;3.23;96.33;103407.50;5057302;28;20029;-76
2022/01/24 07:08:50;;;;;;;25.48;12.77;;;;;;;3.20;96.42;103402.22;5071934;28;20109;-75
2022/01/24 07:11:15;;;;;;;23.55;13.15;;;;;;;3.17;96.24;103393.41;5054209;28;20052;-75
2022/01/24 07:13:41;;;;;;;23.50;12.85;;;;;;;3.18;96.08;103393.38;5054363;28;20111;-74
2022/01/24 07:16:07;;;;;;;21.33;11.10;;;;;;;3.21;96.89;103392.47;5057921;28;20456;-75
2022/01/24 07:21:05;;;;;;;24.38;12.23;;;;;;;3.12;96.23;103382.78;5049146;28;20099;-75
2022/01/24 07:23:30;;;;;;;24.45;13.05;;;;;;;3.28;95.67;103399.50;5074790;28;20130;-75
2022/01/24 07:25:56;;;;;;;25.52;11.95;;;;;;;3.11;95.77;103394.28;5048401;28;20047;-76
2022/01/24 07:28:21;;;;;;;24.02;12.20;;;;;;;3.13;96.42;103400.47;5058709;28;20039;-76
2022/01/24 07:30:47;;;;;;;24.83;12.68;;;;;;;3.10;96.58;103395.19;5054912;28;20028;-76
2022/01/24 07:33:15;;;;;;;23.77;11.85;;;;;;;3.16;96.31;103405.78;5057454;28;20043;-77
2022/01/24 07:35:42;;;;;;;23.05;12.82;;;;;;;3.27;96.37;103419.88;5057346;28;20058;-76
2022/01/24 07:38:08;;;;;;;25.90;14.10;;;;;;;3.09;96.60;103406.69;5063610;28;20028;-76
2022/01/24 07:40:38;;;;;;;26.20;12.60;;;;;;;3.15;96.92;103425.25;5056971;28;20025;-76
2022/01/24 07:43:13;;;;;;;22.25;12.68;;;;;;;3.21;96.74;103419.00;5061673;28;20031;-75
2022/01/24 07:45:39;;;;;;;20.92;12.15;;;;;;;3.17;96.82;103422.59;5049999;28;20552;-76
2022/01/24 07:48:05;;;;;;;23.52;12.57;;;;;;;3.08;96.63;103431.47;5063229;28;20107;-77
2022/01/24 07:50:31;;;;;;;22.60;11.93;;;;;;;3.06;97.36;103419.97;5060867;28;20416;-76
2022/01/24 07:52:59;;;;;;;23.63;12.25;;;;;;;3.12;97.95;103428.81;5055179;28;20033;-76
2022/01/24 07:55:25;;;;;;;25.50;12.93;;;;;;;3.18;97.02;103424.38;5058014;28;20123;-75
2022/01/24 07:57:50;;;;;;;25.58;14.05;;;;;;;3.34;96.76;103427.78;5041616;28;20478;-75
2022/01/24 08:00:15;;;;;;;26.85;13.90;;;;;;;3.27;97.67;103440.22;5061295;28;20043;-75
2022/01/24 08:02:41;;;;;;;26.38;13.82;;;;;;;3.14;97.47;103424.38;5056053;28;20104;-75
2022/01/24 08:05:08;;;;;;;22.73;13.38;;;;;;;3.21;97.39;103433.19;5058779;28;20067;-75
2022/01/24 08:07:34;;;;;;;26.23;13.60;;;;;;;3.26;99.06;103441.13;5058359;28;20031;-76
2022/01/24 08:10:00;;;;;;;25.95;13.27;;;;;;;3.15;97.73;103422.59;5060642;28;20020;-76
2022/01/24 08:12:25;;;;;;;26.10;14.52;;;;;;;3.54;96.34;103441.84;5046560;28;20047;-75
2022/01/24 08:14:51;;;;;;;23.58;12.60;;;;;;;3.35;97.33;103449.03;5060557;28;20021;-74
2022/01/24 08:17:16;;;;;;;24.35;12.85;;;;;;;3.17;97.71;103425.25;5052986;28;20131;-75
2022/01/24 08:19:41;;;;;;;21.38;11.95;;;;;;;3.20;97.83;103439.38;5059673;28;20037;-75
2022/01/24 08:22:07;;;;;;;21.77;13.02;;;;;;;3.36;97.03;103460.53;5039708;28;20064;-74
2022/01/24 08:24:32;;;;;;;24.75;12.63;;;;;;;3.27;97.88;103446.44;5058374;28;20071;-75
2022/01/24 08:26:57;;;;;;;26.88;12.93;;;;;;;3.32;97.87;103446.41;5043229;28;20052;-75
2022/01/24 08:29:23;;;;;;;20.13;12.73;;;;;;;3.26;97.71;103435.81;5060962;28;20034;-75
2022/01/24 08:31:48;;;;;;;23.10;12.98;;;;;;;3.26;98.15;103431.41;5059361;28;20032;-75
2022/01/24 08:34:14;;;;;;;22.88;12.05;;;;;;;3.31;97.95;103436.66;5058344;28;20116;-75
2022/01/24 08:36:39;;;;;;;21.42;12.05;;;;;;;3.34;98.00;103444.63;5059869;28;20024;-75
2022/01/24 08:39:08;;;;;;;19.67;12.13;;;;;;;3.34;97.93;103443.72;5059702;28;20424;-75
2022/01/24 08:42:22;;;;;;;20.77;12.27;;;;;;;3.41;96.94;103442.81;5056768;28;20038;-75
2022/01/24 08:46:49;;;;;;;18.23;11.77;;;;;;;3.52;96.31;103454.25;5060804;28;20024;-74
2022/01/24 08:49:14;;;;;;;18.65;11.57;;;;;;;3.59;96.06;103455.97;5079341;28;20035;-75
2022/01/24 08:51:40;;;;;;;22.88;12.07;;;;;;;3.58;96.19;103450.69;5059966;28;20025;-75
2022/01/24 08:54:06;;;;;;;22.63;13.20;;;;;;;3.52;95.77;103445.41;5055340;28;20533;-75
2022/01/24 08:56:33;;;;;;;20.52;12.32;;;;;;;3.56;96.70;103439.19;5063443;28;20115;-75
2022/01/24 08:58:58;;;;;;;25.23;12.65;;;;;;;3.57;96.15;103446.25;5058432;28;20055;-75
2022/01/24 09:01:23;;;;;;;23.80;11.98;;;;;;;3.53;96.68;103442.75;5044352;28;20467;-75
2022/01/24 09:03:49;;;;;;;20.70;11.88;;;;;;;3.42;97.58;103433.94;5054698;28;20028;-75
2022/01/24 09:06:17;;;;;;;21.92;12.65;;;;;;;3.61;96.93;103434.72;5058794;28;20040;-75
2022/01/24 09:08:43;;;;;;;20.40;12.05;;;;;;;3.70;96.24;103444.41;5052655;28;20439;-75
2022/01/24 09:11:08;;;;;;;22.02;12.93;;;;;;;3.67;97.70;103444.41;5058464;28;20026;-75
2022/01/24 09:13:34;;;;;;;20.92;11.88;;;;;;;3.75;96.44;103437.28;5058826;28;20017;-75
2022/01/24 09:16:00;;;;;;;24.92;12.15;;;;;;;3.79;94.99;103443.44;5060165;28;20038;-75
2022/01/24 09:18:26;;;;;;;20.83;11.55;;;;;;;3.61;95.28;103432.06;5060949;28;20085;-76
2022/01/24 09:20:52;;;;;;;19.23;11.20;;;;;;;3.69;94.45;103440.88;5062461;28;20028;-76
2022/01/24 09:23:18;;;;;;;24.40;14.48;;;;;;;3.83;95.19;103448.75;5053502;28;20078;-75
2022/01/24 09:25:43;;;;;;;23.80;12.95;;;;;;;3.83;95.24;103438.13;5057174;28;20040;-76
2022/01/24 09:28:09;;;;;;;23.35;13.50;;;;;;;3.88;96.32;103444.25;5043168;28;20495;-74
2022/01/24 09:30:35;;;;;;;21.23;11.48;;;;;;;4.01;93.90;103445.03;5053063;28;20386;-74
2022/01/24 09:33:00;;;;;;;21.48;11.93;;;;;;;4.08;92.36;103458.28;5041407;28;20070;-75
2022/01/24 09:35:29;;;;;;;20.35;13.88;;;;;;;4.04;92.63;103452.13;5061460;28;20098;-74
2022/01/24 09:37:54;;;;;;;19.02;11.35;;;;;;;4.06;91.73;103463.63;5061258;28;20073;-74
2022/01/24 09:40:20;;;;;;;20.15;11.23;;;;;;;4.02;92.25;103462.75;5052566;28;20078;-74
2022/01/24 09:42:46;;;;;;;20.10;13.48;;;;;;;3.91;92.08;103435.38;5063239;28;20031;-74
2022/01/24 09:45:12;;;;;;;23.33;12.77;;;;;;;3.82;92.82;103440.75;5057334;28;20865;-74
2022/01/24 09:47:38;;;;;;;19.38;12.35;;;;;;;3.99;92.20;103435.31;5060383;28;20136;-75
2022/01/24 09:50:06;;;;;;;20.98;12.55;;;;;;;3.80;93.42;103435.47;5058495;28;20031;-75
2022/01/24 09:52:32;;;;;;;21.02;12.35;;;;;;;3.91;93.20;103443.38;5057373;28;20031;-74
2022/01/24 09:54:57;;;;;;;20.20;12.25;;;;;;;3.79;93.59;103446.09;5049241;28;20028;-72
2022/01/24 09:57:22;;;;;;;16.20;11.05;;;;;;;3.85;93.37;103440.75;5059238;28;20143;-76
2022/01/24 09:59:49;;;;;;;20.25;12.60;;;;;;;3.97;93.59;103448.63;5034500;28;20105;-76
2022/01/24 10:02:14;;;;;;;19.77;11.35;;;;;;;3.80;93.19;103445.22;5053995;28;20032;-77
2022/01/24 10:04:39;;;;;;;20.58;12.80;;;;;;;3.93;93.04;103430.03;5057163;28;20122;-76
2022/01/24 10:07:18;;;;;;;19.83;13.60;;;;;;;4.23;91.68;103441.31;5044889;28;20393;-77
2022/01/24 10:09:43;;;;;;;19.02;12.50;;;;;;;4.34;90.11;103442.97;5054789;28;20064;-76
2022/01/24 10:17:36;;;;;;;20.55;13.55;;;;;;;4.28;91.25;103450.13;5057385;28;20066;-76
2022/01/24 10:20:20;;;;;;;23.60;14.55;;;;;;;4.32;89.51;103451.88;5042685;28;20536;-76
2022/01/24 10:23:07;;;;;;;20.52;13.23;;;;;;;4.41;90.01;103458.88;5056183;28;20124;-75
2022/01/24 10:25:45;;;;;;;19.77;12.25;;;;;;;4.31;89.61;103450.97;5054350;28;20024;-75
2022/01/24 10:28:11;;;;;;;19.65;12.40;;;;;;;4.32;89.69;103452.75;5057352;28;20124;-75
2022/01/24 10:30:36;;;;;;;20.33;12.05;;;;;;;4.24;90.14;103449.25;5053475;28;20028;-76
2022/01/24 10:33:04;;;;;;;16.52;11.65;;;;;;;4.40;89.63;103441.16;5075584;28;20024;-75
2022/01/24 10:35:32;;;;;;;40.65;12.35;;;;;;;4.42;89.39;103434.91;5057640;28;20026;-76
2022/01/24 10:38:52;;;;;;;17.38;12.15;;;;;;;4.35;90.70;103438.56;5057194;28;20032;-76
2022/01/24 10:41:21;;;;;;;20.65;12.88;;;;;;;4.39;90.76;103434.94;5048806;28;20115;-76
2022/01/24 10:43:47;;;;;;;18.08;11.18;;;;;;;4.47;90.46;103426.91;5057013;28;20040;-76
2022/01/24 10:46:13;;;;;;;19.80;12.88;;;;;;;4.77;88.75;103433.66;5039891;28;20086;-76
2022/01/24 10:48:43;;;;;;;20.52;12.40;;;;;;;4.58;87.88;103424.13;5059728;28;20127;-76
2022/01/24 10:51:16;;;;;;;18.95;11.88;;;;;;;4.70;87.90;103441.72;5050073;28;20115;-75
2022/01/24 10:53:50;;;;;;;18.13;11.07;;;;;;;4.73;88.07;103428.41;5053077;28;20036;-77
2022/01/24 10:56:38;;;;;;;19.27;12.45;;;;;;;4.90;87.96;103439.72;5038171;28;20032;-80
2022/01/24 10:59:06;;;;;;;18.85;11.48;;;;;;;5.02;85.93;103427.16;5054569;28;20115;-80
2022/01/24 11:01:32;;;;;;;16.92;10.15;;;;;;;5.50;84.74;103418.50;5057072;28;20028;-80
2022/01/24 11:04:00;;;;;;;16.55;11.63;;;;;;;6.27;83.98;103413.72;5050073;28;20044;-79
2022/01/24 11:06:27;;;;;;;15.55;11.15;;;;;;;6.38;81.29;103392.16;5055738;28;21031;-80
2022/01/24 11:09:10;;;;;;;16.75;10.30;;;;;;;6.28;80.76;103394.13;5064582;28;20646;-79
2022/01/24 11:11:35;;;;;;;17.25;10.45;;;;;;;6.32;83.01;103387.81;5056874;28;20433;-79
2022/01/24 11:14:00;;;;;;;16.50;10.95;;;;;;;6.22;82.80;103399.56;5060353;28;20035;-80
2022/01/24 11:16:25;;;;;;;19.50;11.98;;;;;;;5.77;82.94;103385.19;5066398;28;20513;-80
2022/01/24 11:18:51;;;;;;;17.70;11.57;;;;;;;5.70;82.95;103404.84;5045022;28;20032;-80
2022/01/24 11:21:16;;;;;;;16.75;10.55;;;;;;;5.56;83.24;103395.28;5045005;28;20033;-79
2022/01/24 11:23:43;;;;;;;17.50;11.70;;;;;;;5.58;83.29;103397.94;5055258;28;20036;-77
2022/01/24 11:26:11;;;;;;;20.58;12.63;;;;;;;5.49;85.56;103377.66;5062564;28;20025;-80
2022/01/24 11:28:36;;;;;;;17.98;13.85;;;;;;;5.60;84.76;103398.81;5039976;28;20050;-80
2022/01/24 11:31:07;;;;;;;19.65;12.93;;;;;;;5.35;84.93;103392.94;5047498;28;20025;-79
2022/01/24 11:33:35;;;;;;;18.77;12.23;;;;;;;5.18;86.42;103404.75;5043041;28;20122;-79
2022/01/24 11:36:02;;;;;;;19.15;12.35;;;;;;;5.30;85.56;103411.69;5059740;28;20116;-79
2022/01/24 11:38:38;;;;;;;15.98;11.80;;;;;;;5.17;84.46;103410.06;5047613;28;20050;-79
2022/01/24 11:41:04;;;;;;;22.05;14.27;;;;;;;5.33;85.67;103403.66;5046084;28;20446;-79
2022/01/24 11:43:37;;;;;;;22.42;12.98;;;;;;;5.08;85.25;103392.44;5060335;28;20024;-79
2022/01/24 11:46:44;;;;;;;21.23;13.88;;;;;;;5.07;85.53;103402.22;5056823;28;20389;-79
2022/01/24 11:49:19;;;;;;;20.45;12.82;;;;;;;5.06;84.71;103392.47;5059103;28;20032;-79
2022/01/24 11:51:47;;;;;;;23.00;12.52;;;;;;;5.10;84.85;103390.63;5056710;28;20600;-79
2022/01/24 11:57:32;;;;;;;24.40;12.85;;;;;;;5.18;85.09;103387.88;5061754;28;20343;-80
2022/01/24 12:00:07;;;;;;;23.20;14.60;;;;;;;5.29;85.78;103380.59;5049665;28;20028;-79
2022/01/24 12:02:41;;;;;;;23.27;12.82;;;;;;;5.37;85.59;103384.06;5061318;28;20025;-79
2022/01/24 12:05:14;;;;;;;22.75;16.30;;;;;;;5.68;83.01;103366.69;5056598;28;20037;-79
2022/01/24 12:07:48;;;;;;;18.73;12.57;;;;;;;5.29;84.62;103364.63;5064099;28;20419;-77
2022/01/24 12:10:36;;;;;;;21.67;13.82;;;;;;;5.29;84.50;103379.75;5059380;28;20036;-78
2022/01/24 12:13:03;;;;;;;22.50;13.52;;;;;;;5.36;85.76;103384.06;5072866;28;20033;-79
2022/01/24 12:15:38;;;;;;;19.38;12.85;;;;;;;5.42;85.09;103383.97;5044841;28;20620;-78
2022/01/24 12:18:05;;;;;;;21.80;12.98;;;;;;;5.47;85.19;103392.78;5055334;28;20028;-78
2022/01/24 12:20:30;;;;;;;20.92;12.45;;;;;;;5.55;85.36;103384.66;5057688;28;20310;-78
2022/01/24 12:22:59;;;;;;;20.13;13.45;;;;;;;5.58;84.32;103378.38;5059221;28;20031;-78
2022/01/24 12:25:47;;;;;;;17.92;12.68;;;;;;;5.63;84.77;103379.19;5056378;28;20086;-79
2022/01/24 12:28:23;;;;;;;20.42;13.73;;;;;;;5.65;85.69;103364.97;5062539;28;20120;-79
2022/01/24 12:31:02;;;;;;;18.48;12.02;;;;;;;5.65;85.35;103370.28;5061455;28;20305;-78
2022/01/24 12:33:33;;;;;;;19.95;12.98;;;;;;;5.68;86.06;103364.91;5056730;28;20119;-78
2022/01/24 12:36:01;;;;;;;22.95;13.02;;;;;;;5.70;84.82;103363.06;5039227;28;20043;-78
2022/01/24 12:38:42;;;;;;;18.73;13.32;;;;;;;5.71;81.51;103363.97;5062921;28;20138;-79
2022/01/24 12:41:17;;;;;;;18.92;12.43;;;;;;;5.69;83.46;103341.78;5056380;28;20099;-78
2022/01/24 12:46:27;;;;;;;18.40;11.73;;;;;;;5.76;82.93;103340.78;5056681;28;20055;-78
2022/01/24 12:48:55;;;;;;;17.00;12.02;;;;;;;5.71;82.47;103332.84;5048654;28;20029;-78
2022/01/24 12:51:23;;;;;;;21.70;13.45;;;;;;;5.91;82.37;103334.31;5052113;28;20424;-79
2022/01/24 12:53:50;;;;;;;22.33;12.00;;;;;;;6.02;80.88;103335.91;5047334;28;20065;-75
2022/01/24 12:56:18;;;;;;;19.88;12.35;;;;;;;5.94;81.76;103346.69;5057333;28;20035;-75
2022/01/24 12:58:46;;;;;;;17.48;12.13;;;;;;;5.90;82.47;103344.97;5058773;28;20565;-75
2022/01/24 13:01:22;;;;;;;17.50;12.23;;;;;;;5.90;81.57;103339.66;5058460;28;20028;-76
2022/01/24 13:03:49;;;;;;;15.30;12.05;;;;;;;5.66;81.22;103312.53;5057740;28;20040;-76
2022/01/24 13:06:18;;;;;;;19.13;12.52;;;;;;;5.77;80.86;103331.88;5059678;28;20247;-75
2022/01/24 13:08:56;;;;;;;19.08;11.90;;;;;;;5.87;82.47;103337.94;5047889;28;20054;-75
2022/01/24 13:11:22;;;;;;;21.42;13.05;;;;;;;5.90;83.40;103318.31;5045538;28;20448;-75
2022/01/24 13:14:08;;;;;;;18.05;12.93;;;;;;;5.76;81.09;103324.78;5062523;28;20085;-76
2022/01/24 13:25:27;;;;;;;19.33;11.68;;;;;;;5.96;81.94;103328.88;5056274;28;20033;-75